createdAt,value
2023-03-01T00:02:09.218Z,-70
2023-03-01T00:07:10.742Z,-69
2023-03-01T00:12:12.775Z,-68
2023-03-01T00:17:14.556Z,-69
2023-03-01T00:22:16.030Z,-70
2023-03-01T00:27:17.504Z,-70
2023-03-01T00:32:19.202Z,-71
2023-03-01T00:37:24.322Z,-70
2023-03-01T00:42:25.786Z,-71
2023-03-01T00:47:30.311Z,-71
2023-03-01T00:52:31.809Z,-70
2023-03-01T00:57:33.420Z,-70
2023-03-01T01:02:35.478Z,-69
2023-03-01T01:07:37.716Z,-69
2023-03-01T01:12:39.219Z,-67
2023-03-01T01:17:41.462Z,-68
2023-03-01T01:22:42.953Z,-69
2023-03-01T01:27:44.388Z,-71
2023-03-01T01:32:45.830Z,-72
2023-03-01T01:37:47.311Z,-71
2023-03-01T01:42:48.885Z,-70
2023-03-01T01:47:51.989Z,-69
2023-03-01T01:52:55.835Z,-70
2023-03-01T01:58:02.283Z,-69
2023-03-01T02:03:12.824Z,-70
2023-03-01T02:08:17.137Z,-71
2023-03-01T02:13:18.757Z,-68
2023-03-01T02:18:23.408Z,-70
2023-03-01T02:23:25.080Z,-71
2023-03-01T02:28:36.059Z,-71
2023-03-01T02:33:39.909Z,-69
2023-03-01T02:38:43.079Z,-69
2023-03-01T02:43:44.837Z,-71
2023-03-01T02:48:53.090Z,-71
2023-03-01T02:54:15.900Z,-69
2023-03-01T02:59:23.563Z,-68
2023-03-01T03:04:25.093Z,-71
2023-03-01T03:09:26.870Z,-71
2023-03-01T03:14:28.391Z,-68
2023-03-01T03:19:29.842Z,-70
2023-03-01T03:24:38.811Z,-70
2023-03-01T03:29:40.301Z,-70
2023-03-01T03:34:41.812Z,-69
2023-03-01T03:39:43.277Z,-70
2023-03-01T03:44:44.732Z,-69
2023-03-01T03:49:46.172Z,-70
2023-03-01T03:54:47.624Z,-70
2023-03-01T03:59:49.053Z,-69
2023-03-01T04:04:50.721Z,-69
2023-03-01T04:09:52.213Z,-69
2023-03-01T04:14:54.310Z,-69
2023-03-01T04:19:55.767Z,-70
2023-03-01T04:24:57.259Z,-69
2023-03-01T04:29:58.793Z,-71
2023-03-01T04:35:02.933Z,-69
2023-03-01T04:40:16.882Z,-70
2023-03-01T04:45:18.432Z,-71
2023-03-01T04:50:24.637Z,-68
2023-03-01T04:55:27.897Z,-70
2023-03-01T05:00:29.426Z,-70
2023-03-01T05:05:38.684Z,-72
2023-03-01T05:10:40.191Z,-69
2023-03-01T05:15:41.916Z,-68
2023-03-01T05:20:43.665Z,-70
2023-03-01T05:25:45.804Z,-71
2023-03-01T05:30:47.903Z,-71
2023-03-01T05:35:50.341Z,-71
2023-03-01T05:40:51.877Z,-70
2023-03-01T05:45:53.434Z,-69
2023-03-01T05:50:54.891Z,-68
2023-03-01T05:55:56.468Z,-70
2023-03-01T06:00:57.952Z,-70
2023-03-01T06:05:59.740Z,-66
2023-03-01T06:11:01.244Z,-65
2023-03-01T06:16:07.029Z,-65
2023-03-01T06:21:09.573Z,-73
2023-03-01T06:26:11.103Z,-66
2023-03-01T06:31:12.932Z,-68
2023-03-01T06:36:14.392Z,-70
2023-03-01T06:41:15.855Z,-69
2023-03-01T06:46:17.406Z,-78
2023-03-01T06:51:18.956Z,-71
2023-03-01T06:56:20.926Z,-77
2023-03-01T07:01:22.598Z,-67
2023-03-01T07:06:24.536Z,-75
2023-03-01T07:11:26.068Z,-74
2023-03-01T07:16:27.786Z,-74
2023-03-01T07:21:29.459Z,-75
2023-03-01T07:26:31.109Z,-72
2023-03-01T07:31:33.327Z,-74
2023-03-01T07:36:34.896Z,-76
2023-03-01T07:41:36.470Z,-69
2023-03-01T07:46:37.952Z,-73
2023-03-01T07:51:39.461Z,-68
2023-03-01T07:56:41.810Z,-67
2023-03-01T08:01:43.363Z,-67
2023-03-01T08:06:44.935Z,-67
2023-03-01T08:11:46.963Z,-65
2023-03-01T08:16:50.568Z,-67
2023-03-01T08:21:52.064Z,-69
2023-03-01T08:26:53.771Z,-66
2023-03-01T08:31:55.379Z,-65
2023-03-01T08:36:56.962Z,-70
2023-03-01T08:41:58.545Z,-63
2023-03-01T08:47:00.983Z,-71
2023-03-01T08:52:03.419Z,-73
2023-03-01T08:57:04.905Z,-65
2023-03-01T09:02:13.727Z,-65
2023-03-01T09:07:15.246Z,-65
2023-03-01T09:12:16.729Z,-66
2023-03-01T09:17:18.246Z,-64
2023-03-01T09:22:19.757Z,-69
2023-03-01T09:27:21.208Z,-69
2023-03-01T09:32:22.824Z,-70
2023-03-01T09:37:24.296Z,-65
2023-03-01T09:42:26.588Z,-71
2023-03-01T09:47:39.417Z,-70
2023-03-01T09:52:44.362Z,-69
2023-03-01T09:57:51.499Z,-68
2023-03-01T10:03:00.925Z,-68
2023-03-01T10:08:11.763Z,-68
2023-03-01T10:13:44.897Z,-69
2023-03-01T10:18:53.654Z,-68
2023-03-01T10:24:10.372Z,-68
2023-03-01T10:29:15.906Z,-68
2023-03-01T10:34:31.862Z,-68
2023-03-01T10:39:35.032Z,-68
2023-03-01T10:44:44.712Z,-68
2023-03-01T10:50:04.353Z,-68
2023-03-01T10:55:06.755Z,-68
2023-03-01T11:00:14.195Z,-68
2023-03-01T11:05:18.687Z,-68
2023-03-01T11:10:30.335Z,-68
2023-03-01T11:15:32.068Z,-68
2023-03-01T11:20:36.726Z,-68
2023-03-01T11:25:42.438Z,-70
2023-03-01T11:31:05.484Z,-68
2023-03-01T11:36:33.369Z,-68
2023-03-01T11:41:38.068Z,-68
2023-03-01T11:47:06.462Z,-68
2023-03-01T11:52:22.606Z,-68
2023-03-01T11:57:44.220Z,-68
2023-03-01T12:02:48.630Z,-68
2023-03-01T12:08:14.225Z,-68
2023-03-01T12:13:57.642Z,-70
2023-03-01T12:19:08.754Z,-68
2023-03-01T12:24:24.300Z,-69
2023-03-01T12:29:50.260Z,-69
2023-03-01T12:35:08.358Z,-69
2023-03-01T12:40:28.066Z,-68
2023-03-01T12:45:47.785Z,-68
2023-03-01T12:50:53.294Z,-68
2023-03-01T12:56:02.031Z,-67
2023-03-01T13:01:35.630Z,-69
2023-03-01T13:06:59.918Z,-69
2023-03-01T13:12:04.245Z,-69
2023-03-01T13:17:48.101Z,-68
2023-03-01T13:23:06.818Z,-65
2023-03-01T13:28:38.866Z,-66
2023-03-01T13:33:48.037Z,-64
2023-03-01T13:38:52.440Z,-68
2023-03-01T13:43:54.533Z,-68
2023-03-01T13:48:58.124Z,-68
2023-03-01T13:54:00.597Z,-69
2023-03-01T13:59:16.524Z,-68
2023-03-01T14:04:33.302Z,-68
2023-03-01T14:09:39.018Z,-68
2023-03-01T14:14:49.343Z,-69
2023-03-01T14:19:58.370Z,-69
2023-03-01T14:25:18.587Z,-68
2023-03-01T14:30:26.858Z,-68
2023-03-01T14:35:35.371Z,-66
2023-03-01T14:40:38.258Z,-66
2023-03-01T14:45:40.015Z,-69
2023-03-01T14:50:44.208Z,-65
2023-03-01T14:55:48.977Z,-64
2023-03-01T15:01:05.180Z,-62
2023-03-01T15:06:09.271Z,-66
2023-03-01T15:11:31.308Z,-67
2023-03-01T15:16:34.999Z,-67
2023-03-01T15:21:39.086Z,-67
2023-03-01T15:26:45.166Z,-68
2023-03-01T15:32:33.757Z,-64
2023-03-01T15:37:45.857Z,-68
2023-03-01T15:42:47.996Z,-69
2023-03-01T15:47:58.683Z,-68
2023-03-01T15:53:02.956Z,-66
2023-03-01T15:58:11.051Z,-68
2023-03-01T16:03:12.984Z,-68
2023-03-01T16:08:15.441Z,-68
2023-03-01T16:13:18.826Z,-71
2023-03-01T16:18:20.396Z,-65
2023-03-01T16:23:25.878Z,-66
2023-03-01T16:28:29.275Z,-69
2023-03-01T16:33:33.495Z,-66
2023-03-01T16:38:35.991Z,-65
2023-03-01T16:43:37.539Z,-63
2023-03-01T16:48:40.219Z,-65
2023-03-01T16:53:42.444Z,-66
2023-03-01T16:58:44.464Z,-66
2023-03-01T17:03:47.597Z,-69
2023-03-01T17:08:49.294Z,-68
2023-03-01T17:13:50.855Z,-68
2023-03-01T17:18:52.679Z,-64
2023-03-01T17:23:57.055Z,-66
2023-03-01T17:28:59.190Z,-66
2023-03-01T17:34:01.706Z,-65
2023-03-01T17:39:04.144Z,-64
2023-03-01T17:44:05.756Z,-66
2023-03-01T17:49:07.319Z,-67
2023-03-01T17:54:08.817Z,-66
2023-03-01T17:59:10.378Z,-67
2023-03-01T18:04:12.100Z,-64
2023-03-01T18:09:14.771Z,-69
2023-03-01T18:14:16.294Z,-67
2023-03-01T18:19:18.227Z,-63
2023-03-01T18:24:20.038Z,-61
2023-03-01T18:29:21.619Z,-63
2023-03-01T18:34:23.253Z,-64
2023-03-01T18:39:24.955Z,-64
2023-03-01T18:44:26.618Z,-62
2023-03-01T18:49:28.241Z,-63
2023-03-01T18:54:30.071Z,-64
2023-03-01T18:59:32.750Z,-65
2023-03-01T19:04:34.271Z,-67
2023-03-01T19:09:35.837Z,-65
2023-03-01T19:14:37.392Z,-67
2023-03-01T19:19:39.643Z,-64
2023-03-01T19:24:41.140Z,-67
2023-03-01T19:29:42.658Z,-63
2023-03-01T19:34:44.199Z,-66
2023-03-01T19:39:47.465Z,-64
2023-03-01T19:44:48.992Z,-67
2023-03-01T19:49:50.742Z,-63
2023-03-01T19:54:55.851Z,-66
2023-03-01T20:00:11.058Z,-64
2023-03-01T20:05:12.698Z,-60
2023-03-01T20:10:14.234Z,-64
2023-03-01T20:15:15.779Z,-63
2023-03-01T20:20:17.325Z,-63
2023-03-01T20:25:18.904Z,-66
2023-03-01T20:30:20.447Z,-63
2023-03-01T20:35:22.475Z,-62
2023-03-01T20:40:28.448Z,-65
2023-03-01T20:45:30.000Z,-64
2023-03-01T20:50:31.485Z,-62
2023-03-01T20:55:33.552Z,-68
2023-03-01T21:00:35.706Z,-60
2023-03-01T21:05:37.405Z,-61
2023-03-01T21:10:38.920Z,-61
2023-03-01T21:15:40.748Z,-61
2023-03-01T21:20:42.719Z,-60
2023-03-01T21:25:45.310Z,-61
2023-03-01T21:30:46.790Z,-61
2023-03-01T21:35:48.896Z,-62
2023-03-01T21:40:50.446Z,-62
2023-03-01T21:45:52.028Z,-61
2023-03-01T21:51:02.785Z,-61
2023-03-01T21:56:05.453Z,-62
2023-03-01T22:01:13.501Z,-61
2023-03-01T22:06:28.974Z,-60
2023-03-01T22:11:33.389Z,-61
2023-03-01T22:16:36.162Z,-61
2023-03-01T22:21:43.285Z,-60
2023-03-01T22:26:47.067Z,-61
2023-03-01T22:31:48.732Z,-62
2023-03-01T22:36:51.171Z,-61
2023-03-01T22:41:54.596Z,-60
2023-03-01T22:46:56.143Z,-60
2023-03-01T22:51:59.264Z,-61
2023-03-01T22:57:01.991Z,-60
2023-03-01T23:02:03.790Z,-61
2023-03-01T23:07:05.430Z,-63
2023-03-01T23:12:09.242Z,-61
2023-03-01T23:17:11.048Z,-61
2023-03-01T23:22:12.981Z,-62
2023-03-01T23:27:18.661Z,-60
2023-03-01T23:32:20.229Z,-61
2023-03-01T23:37:21.828Z,-62
2023-03-01T23:42:23.313Z,-63
2023-03-01T23:47:24.808Z,-64
2023-03-01T23:52:26.577Z,-63
2023-03-01T23:57:29.281Z,-64
